x

Cal Poly Pier, Ca (cpxc1) Weather Station

9:22am - Mon 21st May 2018 All times are PDT. -7 hours from GMT.

  • Wind
    2mph, 2mph gusts
  • Air Temp 53°f
  • Sea Pressure 1014.3mb
  • Cal Poly Pier, Ca
  • Cal Poly Pier, Ca

More Historic Weather Station data

Upgrade to MSW Pro to gain access to the past 30 days of data for over 8000 Wavebouys and Weather Stations around the globe.

Join

Comparision Forecast

View Surf forecast
   
Mon 05/21 9:22am 2 2 mph 1014.3mb 53f
9:12am 2 5 mph 1014.3mb 53f
9:02am  -  1 mph 1014.1mb 53f
8:52am  -  2 mph 1014.1mb 53f
8:42am 2 3 mph 1014.1mb 53f
8:32am 3 5 mph 1014.1mb 53f
8:20am 6 7 mph 1013.9mb 53f
8:10am 5 5 mph 1013.7mb 53f
8:00am 6 6 mph 1013.7mb 53f
7:50am 7 8 mph 1013.6mb 53f
7:40am 7 8 mph 1013.6mb 53f
7:30am 5 6 mph 1013.6mb 53f
7:20am 8 10 mph 1013.6mb 53f
7:10am 8 9 mph 1013.4mb 53f
7:00am 7 8 mph 1013.2mb 53f
6:50am 7 9 mph 1013.2mb 53f
6:40am 8 10 mph 1013.2mb 53f
6:30am 9 11 mph 1013mb 53f
6:18am 8 10 mph 1012.9mb 53f
6:08am 8 10 mph 1012.9mb 53f
5:58am 5 7 mph 1012.7mb 52f
5:48am 5 7 mph 1012.5mb 52f
5:38am 5 6 mph 1012.5mb 52f
5:28am 6 7 mph 1012.5mb 52f
5:18am 9 11 mph 1012.7mb 52f
5:08am 15 20 mph 1012.7mb 53f
4:58am 13 16 mph 1012.9mb 53f
4:48am 9 14 mph 1013mb 53f
4:38am 9 11 mph 1013.2mb 53f
4:28am 9 14 mph 1013.4mb 53f
4:18am 5 7 mph 1013.6mb 53f
4:06am 8 11 mph 1013.6mb 53f
3:56am 7 8 mph 1013.6mb 53f
3:46am 3 5 mph 1013.6mb 53f
3:36am 2 2 mph 1013.6mb 53f
3:26am 1 2 mph 1013.6mb 53f
3:16am 6 6 mph 1013.6mb 54f
3:06am 3 5 mph 1013.7mb 54f
2:56am 5 5 mph 1013.6mb 53f
2:46am 5 6 mph 1013.7mb 53f
2:36am 7 8 mph 1013.6mb 53f
2:26am 6 7 mph 1013.6mb 52f
2:16am 7 8 mph 1013.4mb 52f
2:04am 5 6 mph 1013.6mb 52f
1:54am 2 3 mph 1013.7mb 52f
1:44am 3 5 mph 1013.7mb 52f
1:34am 5 6 mph 1013.9mb 52f
1:24am 3 5 mph 1013.9mb 52f
1:14am 2 2 mph 1013.9mb 52f
1:04am 2 3 mph 1013.9mb 52f
12:54am 3 5 mph 1013.9mb 53f
12:44am 5 5 mph 1014.1mb 53f
12:34am 5 6 mph 1014.1mb 54f
12:24am 6 6 mph 1014.1mb 54f
12:14am 2 3 mph 1014.3mb 54f
12:02am 2 2 mph 1014.3mb 54f
Sun 05/20 11:52pm  -  1 mph 1014.3mb 54f
11:42pm 1 2 mph 1014.4mb 54f
11:32pm 1 2 mph 1014.3mb 54f
11:22pm 2 3 mph 1014.3mb 54f
11:12pm 5 6 mph 1014.4mb 54f
11:02pm 5 6 mph 1014.3mb 54f
10:52pm 2 2 mph 1014.4mb 54f
10:42pm 2 5 mph 1014.4mb 54f
10:32pm 2 5 mph 1014.4mb 54f
10:22pm 6 7 mph 1014.4mb 54f
10:12pm 7 8 mph 1014.4mb 54f
10:02pm 6 8 mph 1014.6mb 54f
9:50pm 6 7 mph 1014.6mb 54f
9:40pm 8 10 mph 1014.6mb 54f
9:30pm 6 8 mph 1014.6mb 54f
9:20pm 6 6 mph 1014.6mb 54f
9:10pm 5 6 mph 1014.6mb 55f
9:00pm 5 6 mph 1014.4mb 55f
8:50pm 3 5 mph 1014.4mb 55f
8:40pm 3 5 mph 1014.4mb 55f
8:30pm 5 6 mph 1014.4mb 55f
8:20pm 6 8 mph 1014.4mb 55f
8:10pm 6 7 mph 1014.4mb 55f
8:00pm 5 6 mph 1014.4mb 55f
7:48pm 8 10 mph 1014.3mb 55f
7:38pm 7 9 mph 1014.3mb 55f
7:28pm 9 11 mph 1014.3mb 56f
7:18pm 10 14 mph 1014.3mb 56f
7:08pm 8 13 mph 1014.3mb 56f
6:58pm 6 9 mph 1014.3mb 56f
6:48pm 11 14 mph 1014.3mb 56f
6:38pm 9 11 mph 1014.3mb 56f
6:28pm 10 14 mph 1014.3mb 56f
6:18pm 14 16 mph 1014.4mb 57f
6:08pm 10 17 mph 1014.4mb 57f
5:58pm 14 17 mph 1014.4mb 57f
5:48pm 11 18 mph 1014.4mb 57f
5:36pm 17 21 mph 1014.6mb 58f
5:26pm 20 23 mph 1014.4mb 57f
5:16pm 15 23 mph 1014.6mb 57f
5:06pm 15 18 mph 1014.6mb 57f
4:56pm 16 22 mph 1014.6mb 57f
4:46pm 18 22 mph 1014.6mb 57f
4:36pm 13 20 mph 1014.6mb 57f
4:26pm 18 23 mph 1014.6mb 56f
4:16pm 22 26 mph 1014.6mb 56f
4:06pm 23 28 mph 1014.6mb 57f
3:56pm 21 23 mph 1014.6mb 57f
3:44pm 22 25 mph 1014.6mb 57f
3:34pm 20 24 mph 1014.6mb 58f
3:24pm 22 25 mph 1014.6mb 59f
3:14pm 20 24 mph 1014.4mb 59f
3:04pm 20 23 mph 1014.6mb 60f
2:54pm 18 22 mph 1014.8mb 60f
2:44pm 18 22 mph 1014.8mb 60f
2:34pm 17 22 mph 1014.8mb 60f
2:24pm 20 22 mph 1014.9mb 60f
2:14pm 22 25 mph 1014.9mb 60f
2:04pm 18 22 mph 1014.8mb 60f
1:54pm 17 21 mph 1014.8mb 60f
1:42pm 17 23 mph 1014.9mb 60f
1:32pm 20 24 mph 1015.1mb 59f
1:22pm 21 24 mph 1015.1mb 58f
1:12pm 20 22 mph 1015.3mb 58f
1:02pm 17 21 mph 1015.3mb 59f
12:52pm 15 18 mph 1015.3mb 59f
12:42pm 16 20 mph 1015.3mb 58f
12:32pm 15 17 mph 1015.5mb 58f
12:22pm 16 18 mph 1015.6mb 57f
12:12pm 15 20 mph 1015.6mb 58f
12:02pm 16 21 mph 1015.8mb 57f
11:50am 16 22 mph 1015.8mb 56f
11:40am 14 17 mph 1015.8mb 56f
11:30am 16 20 mph 1015.8mb 55f
11:20am 13 15 mph 1015.8mb 55f
11:10am 15 17 mph 1015.8mb 55f
11:00am 17 21 mph 1016mb 55f
10:50am 16 18 mph 1016mb 55f
10:40am 17 21 mph 1016mb 55f
10:30am 20 22 mph 1016mb 55f
10:20am 21 23 mph 1016mb 55f
10:10am 21 24 mph 1016mb 55f
10:00am 17 21 mph 1016mb 55f
9:48am 15 18 mph 1016.2mb 55f
9:38am 15 17 mph 1016.3mb 55f
9:28am 5 6 mph 1016.3mb 57f
9:18am 2 5 mph 1016.3mb 56f
9:08am 5 7 mph 1016.2mb 55f
8:58am 9 11 mph 1016.2mb 55f
8:48am 9 11 mph 1016mb 54f
8:38am 7 10 mph 1016mb 54f
8:28am 3 6 mph 1016mb 54f
8:18am 3 5 mph 1016.2mb 53f
8:08am 3 5 mph 1016mb 53f
7:56am 3 5 mph 1016.2mb 53f
7:46am  -  1 mph 1016mb 53f
7:36am 3 5 mph 1016mb 53f
7:26am  -  1 mph 1016mb 53f
7:16am 1 2 mph 1016mb 53f
7:06am 1 2 mph 1016mb 53f
6:56am 2 2 mph 1016mb 53f
6:46am 1 2 mph 1016mb 53f
6:36am  -  2 mph 1016mb 53f
6:26am 2 3 mph 1015.8mb 53f
6:16am 2 3 mph 1016mb 53f
6:06am 3 5 mph 1016mb 53f
5:54am 7 9 mph 1016mb 53f
5:44am 2 5 mph 1015.8mb 53f
5:34am 5 6 mph 1015.8mb 53f
5:24am 5 7 mph 1015.6mb 53f
5:14am 5 7 mph 1015.6mb 53f
5:04am 6 8 mph 1015.5mb 53f
4:54am 7 9 mph 1015.5mb 53f
4:44am 6 10 mph 1015.5mb 53f
4:34am 5 7 mph 1015.5mb 53f
4:24am 3 6 mph 1015.5mb 53f
4:14am 3 5 mph 1015.3mb 53f
4:04am 5 6 mph 1015.3mb 53f
3:52am 5 6 mph 1015.5mb 53f
3:42am 5 7 mph 1015.5mb 53f
3:32am 6 8 mph 1015.5mb 53f
3:22am 5 6 mph 1015.5mb 53f
3:12am 3 5 mph 1015.5mb 53f
3:02am 6 6 mph 1015.5mb 53f
2:52am 2 3 mph 1015.3mb 53f
2:42am 1 2 mph 1015.3mb 53f
2:32am 3 6 mph 1015.3mb 53f
2:22am  -  1 mph 1015.3mb 53f
2:12am  -  1 mph 1015.3mb 53f
2:02am 2 3 mph 1015.3mb 53f
1:52am 2 5 mph 1015.3mb 53f
1:40am 3 6 mph 1015.5mb 53f
1:30am 5 6 mph 1015.5mb 53f
1:20am 5 6 mph 1015.6mb 53f
1:10am 6 7 mph 1015.6mb 54f
1:00am 6 7 mph 1015.6mb 54f
12:50am 6 8 mph 1015.6mb 54f
12:40am 7 8 mph 1015.8mb 54f
12:30am 3 5 mph 1015.8mb 54f
12:20am 2 3 mph 1015.8mb 54f
12:10am  -  1 mph 1016mb 54f
Sat 05/19 11:58pm  -  0 mph 1016mb 54f
11:48pm  -  0 mph 1015.8mb 54f
11:38pm 2 2 mph 1015.8mb 54f
11:28pm 5 6 mph 1015.8mb 54f
11:18pm  -  1 mph 1015.8mb 54f
11:08pm 5 5 mph 1015.8mb 54f
10:58pm 5 6 mph 1016mb 54f
10:48pm 3 5 mph 1015.8mb 54f
10:38pm 6 8 mph 1016mb 54f
10:28pm 6 6 mph 1016mb 54f
10:18pm 5 6 mph 1016mb 54f
10:06pm 5 5 mph 1016mb 54f
9:56pm 3 6 mph 1015.8mb 55f
9:46pm 5 6 mph 1015.8mb 54f
9:36pm 7 8 mph 1015.8mb 54f
9:26pm 6 9 mph 1015.6mb 55f
9:16pm 8 10 mph 1015.6mb 55f
9:06pm 6 7 mph 1015.6mb 55f
8:56pm 7 8 mph 1015.5mb 55f
8:46pm 7 9 mph 1015.5mb 55f
8:36pm 7 8 mph 1015.3mb 55f
8:26pm 10 13 mph 1015.1mb 55f
8:16pm 9 11 mph 1015.1mb 55f
8:06pm 9 14 mph 1014.9mb 55f
7:54pm 5 6 mph 1014.9mb 55f
7:44pm 6 8 mph 1014.9mb 55f
7:34pm 9 11 mph 1014.9mb 55f
7:24pm 11 13 mph 1014.8mb 55f
7:14pm 13 14 mph 1014.8mb 56f
7:04pm 13 16 mph 1014.6mb 56f
6:54pm 16 18 mph 1014.4mb 56f
6:44pm 17 21 mph 1014.3mb 57f
6:34pm 17 21 mph 1014.3mb 57f
6:24pm 15 18 mph 1014.1mb 58f
6:14pm 15 18 mph 1013.9mb 58f
6:04pm 14 16 mph 1013.9mb 59f
5:52pm 13 17 mph 1013.9mb 59f
5:42pm 13 16 mph 1013.9mb 59f
5:32pm 13 16 mph 1013.9mb 60f
5:22pm 14 16 mph 1013.9mb 60f
5:12pm 14 17 mph 1013.7mb 60f
5:02pm 14 20 mph 1013.7mb 60f
4:52pm 14 17 mph 1013.6mb 60f
4:42pm 17 21 mph 1013.6mb 60f
4:32pm 20 23 mph 1013.7mb 60f
4:22pm 11 15 mph 1013.7mb 61f
4:12pm 11 15 mph 1013.9mb 61f
4:02pm 14 16 mph 1013.9mb 61f
3:50pm 17 21 mph 1013.9mb 61f
3:40pm 21 24 mph 1013.9mb 60f
3:30pm 21 25 mph 1013.9mb 61f
3:20pm 21 25 mph 1014.1mb 61f
3:10pm 22 26 mph 1014.1mb 61f
3:00pm 20 24 mph 1014.1mb 62f
2:50pm 20 24 mph 1014.1mb 62f
2:40pm 16 22 mph 1014.1mb 63f
2:30pm 15 18 mph 1014.1mb 63f
2:20pm 15 18 mph 1014.3mb 61f
2:10pm 18 22 mph 1014.4mb 61f
1:58pm 17 21 mph 1014.4mb 60f
1:48pm 17 21 mph 1014.4mb 59f
1:38pm 18 23 mph 1014.6mb 59f
1:28pm 18 23 mph 1014.8mb 58f
1:18pm 20 23 mph 1014.8mb 58f
1:08pm 20 28 mph 1014.9mb 58f
12:58pm 21 24 mph 1014.8mb 58f
12:48pm 20 23 mph 1014.9mb 58f
12:38pm 7 16 mph 1015.1mb 58f
12:28pm 8 9 mph 1015.3mb 57f
12:18pm 6 8 mph 1015.1mb 58f
12:08pm 5 6 mph 1015.3mb 58f
11:56am 8 11 mph 1015.3mb 56f
11:46am 10 13 mph 1015.5mb 56f
11:36am 8 11 mph 1015.5mb 56f
11:26am 10 11 mph 1015.5mb 55f
11:16am 10 13 mph 1015.6mb 55f
11:06am 13 15 mph 1015.6mb 55f
10:56am 11 14 mph 1015.6mb 55f
10:46am 9 11 mph 1015.6mb 55f
10:36am 9 11 mph 1015.8mb 55f
10:26am 7 9 mph 1015.8mb 54f
10:16am 7 8 mph 1015.8mb 54f
10:04am 6 7 mph 1015.6mb 54f
9:54am 3 6 mph 1015.6mb 55f
9:44am 3 5 mph 1015.8mb 54f
9:34am 3 5 mph 1015.8mb 54f
9:24am 3 5 mph 1015.8mb 54f
9:14am 3 5 mph 1015.8mb 54f
9:04am 6 6 mph 1015.8mb 54f
8:54am 3 6 mph 1015.8mb 54f
8:44am 5 6 mph 1015.8mb 54f
8:34am 5 6 mph 1015.8mb 54f
8:24am 3 6 mph 1015.6mb 53f
8:14am 5 6 mph 1015.6mb 54f
8:02am 5 6 mph 1015.6mb 54f
7:52am 5 6 mph 1015.5mb 53f
7:42am 5 5 mph 1015.5mb 53f
7:32am 2 5 mph 1015.3mb 54f
7:22am 3 6 mph 1015.1mb 54f
7:12am 5 6 mph 1014.9mb 54f
7:02am 2 2 mph 1014.9mb 54f
6:52am 2 5 mph 1014.8mb 53f
6:42am 3 5 mph 1014.6mb 53f
6:32am 1 2 mph 1014.6mb 53f
6:22am  -  0 mph 1014.6mb 53f
6:12am  -  1 mph 1014.6mb 53f
6:00am 3 5 mph 1014.6mb 53f
5:50am 3 5 mph 1014.6mb 53f
5:40am 6 7 mph 1014.6mb 53f
5:30am 7 8 mph 1014.6mb 53f
5:20am 7 9 mph 1014.6mb 53f
5:10am 9 10 mph 1014.6mb 53f
5:00am 9 11 mph 1014.8mb 54f
4:50am 7 8 mph 1014.6mb 54f
4:40am 7 8 mph 1014.4mb 54f
4:30am 3 5 mph 1014.4mb 54f
4:20am  -  1 mph 1014.6mb 54f
4:10am 2 3 mph 1014.6mb 54f
3:58am 2 5 mph 1014.6mb 54f
3:48am 2 5 mph 1014.4mb 54f
3:38am 5 7 mph 1014.4mb 54f
3:28am 3 6 mph 1014.6mb 54f
3:18am 2 3 mph 1014.8mb 54f
3:08am 2 3 mph 1014.8mb 54f
2:58am 3 5 mph 1014.9mb 54f
2:48am 6 7 mph 1014.9mb 54f
2:38am 8 10 mph 1014.9mb 54f
2:28am 5 6 mph 1014.9mb 55f
2:18am 3 5 mph 1014.9mb 55f
2:08am  -  2 mph 1014.9mb 55f
1:58am 2 2 mph 1015.1mb 55f
1:46am 2 2 mph 1015.1mb 55f
1:36am  -  2 mph 1015.3mb 55f
1:26am 5 6 mph 1015.3mb 55f
1:16am 1 3 mph 1015.5mb 55f
1:06am  -  1 mph 1015.5mb 55f
12:56am  -  1 mph 1015.5mb 55f
12:46am 2 2 mph 1015.6mb 55f
12:36am  -  1 mph 1015.5mb 55f
12:26am  -  1 mph 1015.5mb 55f
12:16am  -  1 mph 1015.5mb 55f
12:06am 1 2 mph 1015.6mb 55f
Fri 05/18 11:56pm 2 3 mph 1015.6mb 54f
11:44pm 2 3 mph 1015.6mb 54f
11:34pm 3 5 mph 1015.6mb 54f
11:24pm 3 5 mph 1015.6mb 54f
11:14pm  -  1 mph 1015.8mb 55f
11:04pm 2 3 mph 1015.6mb 55f
10:54pm  -  1 mph 1015.6mb 54f
10:44pm  -  1 mph 1015.6mb 55f
10:34pm  -  1 mph 1015.8mb 55f
10:24pm  -  1 mph 1015.6mb 55f
10:14pm 2 3 mph 1015.6mb 55f
10:04pm 1 2 mph 1015.6mb 55f
9:54pm  -  1 mph 1015.6mb 55f
9:44pm 2 3 mph 1015.5mb 55f
9:32pm 5 6 mph 1015.6mb 56f
9:22pm 7 9 mph 1015.6mb 56f
9:12pm 7 10 mph 1015.6mb 56f
9:02pm 8 9 mph 1015.6mb 56f
8:52pm 6 7 mph 1015.6mb 56f
8:42pm 9 14 mph 1015.5mb 56f
8:32pm 9 11 mph 1015.3mb 55f
8:22pm 13 15 mph 1015.1mb 56f
8:12pm 13 14 mph 1015.1mb 56f
8:02pm 13 15 mph 1014.9mb 56f
7:52pm 10 11 mph 1014.8mb 57f
7:42pm 13 15 mph 1014.8mb 57f
7:30pm 14 18 mph 1014.8mb 58f
7:20pm 14 18 mph 1014.6mb 58f
7:10pm 15 17 mph 1014.6mb 58f
7:00pm 10 15 mph 1014.6mb 58f
6:50pm 11 15 mph 1014.6mb 59f
6:40pm  -  2 mph 1014.6mb 62f
6:30pm 2 2 mph 1014.8mb 61f
6:20pm 8 13 mph 1014.6mb 60f
6:10pm 8 17 mph 1014.6mb 61f
6:00pm 14 16 mph 1014.4mb 60f
5:50pm 17 22 mph 1014.3mb 60f
5:40pm 21 24 mph 1014.4mb 59f
5:30pm 6 10 mph 1014.4mb 61f
5:18pm 9 13 mph 1014.4mb 60f
5:08pm 10 14 mph 1014.4mb 62f
4:58pm 14 17 mph 1014.4mb 62f
4:48pm 18 21 mph 1014.4mb 62f
4:28pm 18 21 mph 1014.3mb 62f
4:18pm 17 20 mph 1014.3mb 62f
4:08pm 22 24 mph 1014.4mb 60f
3:58pm 17 23 mph 1014.3mb 61f
3:48pm 21 24 mph 1014.4mb 61f
3:36pm 17 24 mph 1014.4mb 62f
3:26pm 17 25 mph 1014.6mb 62f
3:16pm 17 21 mph 1014.6mb 62f
3:04pm 22 24 mph 1014.6mb 61f
2:54pm 21 25 mph 1014.8mb 60f
2:42pm 25 29 mph 1014.9mb 58f
2:32pm 26 30 mph 1014.9mb 58f
2:22pm 24 29 mph 1014.9mb 58f
2:12pm 20 22 mph 1014.9mb 59f
2:02pm 22 25 mph 1014.9mb 58f
1:52pm 18 21 mph 1014.9mb 59f
1:42pm 20 24 mph 1015.1mb 58f
1:32pm 16 20 mph 1015.1mb 59f
1:20pm 17 22 mph 1015.3mb 58f
1:10pm 17 23 mph 1015.3mb 59f
1:00pm 14 17 mph 1015.3mb 60f
12:50pm 15 17 mph 1015.5mb 59f
12:38pm 21 24 mph 1015.6mb 58f
12:28pm 21 24 mph 1015.6mb 58f
12:18pm 20 24 mph 1015.6mb 59f
12:06pm 18 21 mph 1015.8mb 59f
11:50am 21 24 mph 1016.2mb 58f
11:38am 21 25 mph 1016.2mb 57f
11:26am 17 22 mph 1016.2mb 58f
11:16am 17 22 mph 1016.3mb 58f
11:06am 17 22 mph 1016.3mb 57f
10:56am 16 20 mph 1016.3mb 58f
10:44am 6 10 mph 1016.5mb 60f
10:30am 1 2 mph 1016.5mb 59f
10:16am 10 14 mph 1016.5mb 55f
10:02am 13 16 mph 1016.7mb 55f
9:48am 6 9 mph 1016.5mb 55f
9:34am 6 7 mph 1016.5mb 55f
9:20am 5 6 mph 1016.3mb 55f
9:06am 3 6 mph 1016.3mb 56f
8:52am 3 5 mph 1016.5mb 56f
8:38am 2 3 mph 1016.5mb 55f
8:24am 1 2 mph 1016.3mb 55f
8:10am 1 2 mph 1016.5mb 55f
7:58am 2 3 mph 1016.5mb 54f
7:48am 3 5 mph 1016.5mb 54f
7:38am 5 6 mph 1016.3mb 54f
7:28am  -  1 mph 1016.2mb 54f
7:18am 3 5 mph 1016.2mb 54f
7:08am 3 6 mph 1016.3mb 54f
6:58am 2 2 mph 1016.3mb 53f
6:48am  -  1 mph 1016.2mb 53f
6:38am  -  1 mph 1016mb 53f
6:26am 2 2 mph 1016mb 53f
6:16am 3 5 mph 1016mb 53f
6:06am 2 2 mph 1016mb 53f
5:56am 5 5 mph 1016mb 52f
5:46am 5 6 mph 1015.8mb 53f
5:36am 9 11 mph 1015.6mb 53f
5:26am 6 8 mph 1015.8mb 53f
5:16am 5 6 mph 1015.8mb 53f
5:06am 6 7 mph 1015.8mb 53f
4:56am 8 9 mph 1015.8mb 53f
4:46am 8 9 mph 1015.8mb 53f
4:36am 7 8 mph 1016mb 53f
4:24am 6 8 mph 1015.8mb 54f
4:14am 6 7 mph 1015.8mb 54f
4:04am 6 8 mph 1015.8mb 54f
3:54am 7 8 mph 1015.8mb 54f
3:44am 1 2 mph 1015.8mb 54f
3:34am 2 3 mph 1015.6mb 54f
3:24am  -  1 mph 1015.6mb 55f
3:14am  -  1 mph 1015.6mb 55f
3:04am 3 5 mph 1015.6mb 55f
2:54am  -  1 mph 1015.8mb 55f
2:44am  -  1 mph 1015.8mb 55f
2:34am  -  1 mph 1015.8mb 55f
2:24am 1 2 mph 1015.8mb 55f
2:12am  -  2 mph 1016mb 55f
2:02am 2 2 mph 1016mb 55f
1:52am 3 5 mph 1016.2mb 55f
1:42am 5 6 mph 1016.3mb 55f
1:32am 5 6 mph 1016.3mb 55f
1:22am 2 2 mph 1016.3mb 55f
1:12am  -  1 mph 1016.5mb 55f
1:02am  -  2 mph 1016.5mb 55f
12:52am 3 5 mph 1016.7mb 55f
12:42am 3 6 mph 1016.7mb 55f
12:32am 3 5 mph 1016.7mb 55f
12:22am 2 2 mph 1016.8mb 55f
12:10am 2 3 mph 1016.8mb 55f
12:00am 3 5 mph 1016.8mb 55f
Thu 05/17 11:50pm 3 5 mph 1017mb 55f
11:40pm 5 6 mph 1017mb 55f
11:30pm 6 7 mph 1017mb 55f
11:20pm 5 6 mph 1017.2mb 55f
11:10pm 6 7 mph 1017.2mb 55f
11:00pm 7 8 mph 1017.2mb 55f
10:50pm 5 6 mph 1017.2mb 56f
10:40pm 5 6 mph 1017.2mb 56f
10:30pm 6 8 mph 1017.4mb 56f
10:20pm 7 8 mph 1017.4mb 56f
10:10pm 7 10 mph 1017.5mb 56f
9:58pm 10 13 mph 1017.4mb 56f
9:48pm 6 9 mph 1017.2mb 56f
9:38pm 8 10 mph 1017.2mb 56f
9:28pm 7 8 mph 1017mb 56f
9:18pm 2 5 mph 1017mb 56f
9:08pm 7 8 mph 1016.8mb 55f
8:58pm 7 11 mph 1016.7mb 56f
8:48pm 9 10 mph 1016.5mb 56f
8:38pm 7 10 mph 1016.5mb 56f
8:28pm 11 16 mph 1016.3mb 57f
8:18pm 7 9 mph 1016.3mb 57f
8:08pm 9 11 mph 1016.2mb 57f
7:56pm 11 14 mph 1016.2mb 57f
7:46pm 9 13 mph 1016mb 57f
7:36pm 13 15 mph 1016mb 57f
7:26pm 14 16 mph 1015.8mb 58f
7:16pm 16 20 mph 1015.8mb 58f
7:06pm 16 18 mph 1015.6mb 58f
6:56pm 13 17 mph 1015.6mb 59f
6:46pm 13 17 mph 1015.6mb 60f
6:36pm 15 17 mph 1015.5mb 60f
6:26pm 14 15 mph 1015.6mb 60f
6:16pm 15 18 mph 1015.6mb 60f
6:06pm 17 21 mph 1015.6mb 60f
5:54pm 18 23 mph 1015.5mb 60f
5:44pm 17 22 mph 1015.5mb 60f
5:34pm 20 22 mph 1015.5mb 61f
5:24pm 20 22 mph 1015.5mb 61f
5:14pm 20 24 mph 1015.5mb 62f